Time;durP1;ratioP1;P1;durP2;ratioP2;P2;SDS_P1;SDS_P2;PMS_P1;PMS_P2;Temp;Humidity;BMP_temperature;BMP_pressure;BME280_temperature;BME280_humidity;BME280_pressure;Samples;Min_cycle;Max_cycle;Signal;HPM_P1;HPM_P2
2022/05/16 00:01:18;;;;;;;8.23;3.33;;;;;;;10.18;74.06;101262.03;1861914;77;21179;-61
2022/05/16 00:03:47;;;;;;;3.42;2.30;;;;;;;10.17;74.08;101263.81;1861875;77;21069;-61
2022/05/16 00:06:17;;;;;;;6.37;2.77;;;;;;;10.16;73.90;101268.69;1861726;77;21602;-61
2022/05/16 00:08:45;;;;;;;4.53;2.12;;;;;;;10.13;73.93;101278.44;1861944;77;21132;-61
2022/05/16 00:11:14;;;;;;;5.72;2.92;;;;;;;10.10;73.72;101271.47;1860720;77;21183;-62
2022/05/16 00:13:43;;;;;;;2.77;1.77;;;;;;;10.09;73.68;101272.83;1842010;77;21602;-64
2022/05/16 00:16:12;;;;;;;3.98;2.12;;;;;;;10.06;73.60;101265.89;1830859;77;21074;-63
2022/05/16 00:18:40;;;;;;;4.10;2.20;;;;;;;10.06;73.69;101267.21;1824941;78;21154;-64
2022/05/16 00:21:09;;;;;;;7.60;2.45;;;;;;;10.10;73.74;101267.98;1855156;77;21186;-64
2022/05/16 00:23:38;;;;;;;8.35;4.00;;;;;;;10.09;73.61;101270.20;1859550;77;21053;-63
2022/05/16 00:26:07;;;;;;;11.03;5.25;;;;;;;10.11;73.66;101272.36;1861848;77;21066;-62
2022/05/16 00:28:35;;;;;;;16.65;7.55;;;;;;;10.09;73.52;101264.50;1861789;77;21143;-62
2022/05/16 00:31:05;;;;;;;12.63;6.50;;;;;;;10.07;73.31;101262.80;1842301;77;21042;-63
2022/05/16 00:33:34;;;;;;;14.43;5.67;;;;;;;10.04;73.30;101262.45;1857899;77;21187;-64
2022/05/16 00:36:03;;;;;;;8.43;3.47;;;;;;;10.03;73.30;101266.86;1861499;77;21485;-64
2022/05/16 00:38:32;;;;;;;10.60;4.70;;;;;;;10.00;73.49;101267.39;1857079;77;21042;-63
2022/05/16 00:41:03;;;;;;;6.92;3.40;;;;;;;9.97;73.37;101273.59;1812051;78;21034;-65
2022/05/16 00:43:54;;;;;;;11.85;4.22;;;;;;;9.94;73.46;101276.33;1830715;78;21058;-63
2022/05/16 00:46:25;;;;;;;6.65;4.03;;;;;;;9.91;73.74;101285.61;1859842;77;21124;-65
2022/05/16 00:48:54;;;;;;;6.87;3.90;;;;;;;9.87;73.82;101281.34;1863249;77;21089;-64
2022/05/16 00:51:28;;;;;;;6.45;3.65;;;;;;;9.84;73.58;101277.01;1866556;77;21067;-65
2022/05/16 00:54:00;;;;;;;7.72;3.95;;;;;;;9.82;73.52;101277.97;1864781;77;21035;-66
2022/05/16 00:56:29;;;;;;;7.15;4.08;;;;;;;9.81;73.34;101280.17;1862754;77;21058;-64
2022/05/16 00:58:58;;;;;;;5.87;3.85;;;;;;;9.79;73.31;101281.98;1835410;78;21584;-65
2022/05/16 01:07:02;;;;;;;14.23;5.12;;;;;;;9.66;73.95;101278.82;1848500;77;21027;-64
2022/05/16 01:09:31;;;;;;;11.25;4.37;;;;;;;9.62;74.00;101271.47;1864744;77;21500;-65
2022/05/16 01:12:01;;;;;;;6.90;4.28;;;;;;;9.62;74.08;101276.72;1860309;77;21610;-65
2022/05/16 01:14:47;;;;;;;7.47;3.85;;;;;;;9.60;73.91;101273.27;1835426;78;21572;-65
2022/05/16 01:17:16;;;;;;;8.48;3.80;;;;;;;9.58;73.88;101278.17;1835516;77;21603;-65
2022/05/16 01:19:46;;;;;;;5.62;3.33;;;;;;;9.53;74.20;101273.02;1835358;78;21167;-65
2022/05/16 01:22:27;;;;;;;5.80;3.27;;;;;;;9.50;74.25;101277.06;1835534;78;21078;-65
2022/05/16 01:25:04;;;;;;;8.98;4.70;;;;;;;9.47;74.32;101283.70;1834982;78;21159;-63
2022/05/16 01:27:53;;;;;;;6.78;3.95;;;;;;;9.46;74.72;101281.97;1834839;78;21058;-63
2022/05/16 01:30:25;;;;;;;10.58;5.20;;;;;;;9.42;74.96;101283.81;1835288;77;21132;-66
2022/05/16 01:32:53;;;;;;;15.88;5.28;;;;;;;9.42;74.78;101286.90;1837699;75;21046;-65
2022/05/16 01:35:27;;;;;;;12.40;5.15;;;;;;;9.40;74.91;101293.50;1902253;75;21078;-65
2022/05/16 01:40:44;;;;;;;10.72;2.98;;;;;;;9.37;75.16;101291.40;1894801;75;21559;-63
2022/05/16 01:43:13;;;;;;;5.60;3.12;;;;;;;9.35;74.99;101293.20;1842015;77;21090;-63
2022/05/16 01:45:44;;;;;;;5.80;4.15;;;;;;;9.31;75.35;101289.80;1838995;77;21085;-63
2022/05/16 01:48:16;;;;;;;6.40;3.35;;;;;;;9.32;75.37;101297.25;1835350;78;21057;-63
2022/05/16 01:50:46;;;;;;;7.03;3.67;;;;;;;9.31;75.23;101287.63;1830490;77;21090;-63
2022/05/16 01:53:16;;;;;;;8.38;3.47;;;;;;;9.30;75.07;101289.86;1807982;78;21043;-63
2022/05/16 01:55:45;;;;;;;4.90;3.25;;;;;;;9.29;75.36;101291.59;1796929;79;21514;-65
2022/05/16 01:58:14;;;;;;;6.90;2.70;;;;;;;9.28;75.59;101293.38;1856925;77;21514;-64
2022/05/16 02:00:42;;;;;;;6.17;3.27;;;;;;;9.26;75.63;101288.61;1848388;77;21092;-66
2022/05/16 02:03:11;;;;;;;5.65;2.58;;;;;;;9.27;75.79;101290.31;1819134;78;22153;-65
2022/05/16 02:05:42;;;;;;;9.00;3.58;;;;;;;9.27;75.73;101289.46;1809077;79;21228;-66
2022/05/16 02:08:12;;;;;;;6.78;2.83;;;;;;;9.28;75.63;101289.89;1822940;78;20997;-65
2022/05/16 02:10:42;;;;;;;4.25;2.83;;;;;;;9.28;75.97;101286.80;1836120;77;21132;-64
2022/05/16 02:13:12;;;;;;;5.25;2.92;;;;;;;9.31;75.96;101288.48;1804951;77;21050;-65
2022/05/16 02:15:43;;;;;;;6.10;2.87;;;;;;;9.34;75.96;101292.81;1788547;80;21133;-62
2022/05/16 02:18:12;;;;;;;8.68;3.02;;;;;;;9.35;76.08;101292.78;1822384;79;21086;-66
2022/05/16 02:20:41;;;;;;;4.50;2.47;;;;;;;9.42;76.16;101298.73;1822460;78;21453;-66
2022/05/16 02:25:59;;;;;;;7.45;4.08;;;;;;;9.62;75.91;101292.50;1822274;77;21557;-67
2022/05/16 02:28:28;;;;;;;7.60;3.70;;;;;;;9.78;75.74;101295.59;1822455;78;21505;-68
2022/05/16 02:30:57;;;;;;;10.05;4.40;;;;;;;9.93;75.68;101294.31;1822374;79;21497;-64
2022/05/16 02:33:26;;;;;;;6.37;4.03;;;;;;;10.05;75.69;101292.67;1833385;77;21054;-65
2022/05/16 02:35:55;;;;;;;3.92;2.85;;;;;;;10.18;75.88;101297.56;1864466;77;21543;-66
2022/05/16 02:38:24;;;;;;;8.40;5.15;;;;;;;10.28;75.91;101299.04;1864405;77;21054;-65
2022/05/16 02:40:52;;;;;;;14.70;9.58;;;;;;;10.34;75.75;101298.88;1854344;77;21072;-66
2022/05/16 02:43:21;;;;;;;11.22;7.33;;;;;;;10.41;75.49;101297.80;1857163;77;21556;-64
2022/05/16 02:45:50;;;;;;;11.73;6.25;;;;;;;10.54;75.44;101300.08;1856987;75;21096;-64
2022/05/16 02:48:18;;;;;;;9.25;4.33;;;;;;;10.64;75.46;101300.19;1857084;77;21134;-65
2022/05/16 02:50:47;;;;;;;5.97;4.12;;;;;;;10.82;75.37;101308.84;1869505;76;21177;-66
2022/05/16 02:53:16;;;;;;;8.08;4.08;;;;;;;11.14;74.84;101315.33;1880935;76;21027;-64
2022/05/16 02:55:45;;;;;;;4.67;2.72;;;;;;;11.37;74.35;101308.86;1880959;76;21058;-63
2022/05/16 02:58:14;;;;;;;6.62;3.20;;;;;;;11.53;74.10;101311.00;1880934;76;21054;-63
2022/05/16 03:00:43;;;;;;;10.35;2.95;;;;;;;11.75;73.67;101306.70;1880948;76;21458;-62
2022/05/16 03:03:12;;;;;;;6.08;2.92;;;;;;;11.86;73.52;101307.65;1881006;76;21054;-64
2022/05/16 03:05:40;;;;;;;9.85;3.20;;;;;;;12.01;73.45;101312.87;1880899;76;21110;-63
2022/05/16 03:08:10;;;;;;;9.70;3.77;;;;;;;12.21;73.09;101322.71;1852023;76;21030;-62
2022/05/16 03:10:39;;;;;;;6.60;3.20;;;;;;;12.24;73.03;101314.66;1840168;77;21532;-62
2022/05/16 03:13:07;;;;;;;5.20;2.72;;;;;;;12.28;73.19;101324.21;1834844;78;21046;-62
2022/05/16 03:15:36;;;;;;;7.72;3.62;;;;;;;12.38;73.32;101316.80;1820524;79;21157;-62
2022/05/16 03:18:05;;;;;;;10.88;5.20;;;;;;;12.45;73.27;101314.77;1834576;78;21054;-63
2022/05/16 03:20:34;;;;;;;16.57;8.88;;;;;;;12.55;73.25;101321.44;1820514;79;21095;-62
2022/05/16 03:23:03;;;;;;;16.67;7.03;;;;;;;12.70;73.35;101322.16;1865155;76;21078;-64
2022/05/16 03:25:32;;;;;;;20.10;8.03;;;;;;;12.82;73.14;101319.52;1878718;75;21141;-66
2022/05/16 03:28:00;;;;;;;19.35;7.42;;;;;;;12.94;72.97;101324.78;1843577;76;21163;-66
2022/05/16 03:30:29;;;;;;;7.80;3.80;;;;;;;13.08;72.81;101322.92;1887299;76;21071;-64
2022/05/16 03:32:58;;;;;;;6.45;3.40;;;;;;;13.18;72.49;101326.05;1887458;76;21048;-64
2022/05/16 03:35:26;;;;;;;10.03;3.30;;;;;;;13.25;72.17;101324.41;1883396;76;21104;-64
2022/05/16 03:37:55;;;;;;;4.28;2.17;;;;;;;13.38;71.95;101326.59;1884030;76;21021;-64
2022/05/16 03:43:14;;;;;;;7.42;2.90;;;;;;;13.63;71.53;101328.61;1884289;75;21132;-63
2022/05/16 03:45:43;;;;;;;3.67;2.22;;;;;;;13.78;71.03;101335.03;1881834;76;21021;-65
2022/05/16 03:48:12;;;;;;;7.35;2.40;;;;;;;13.94;70.66;101333.03;1884046;76;21115;-66
2022/05/16 03:50:41;;;;;;;4.95;2.95;;;;;;;14.10;70.52;101330.11;1882086;75;21065;-63
2022/05/16 03:53:10;;;;;;;9.73;3.33;;;;;;;14.28;70.20;101330.61;1872688;77;21138;-64
2022/05/16 03:55:39;;;;;;;4.83;2.22;;;;;;;14.46;69.89;101330.24;1872721;77;21613;-64
2022/05/16 03:58:07;;;;;;;4.67;2.47;;;;;;;14.68;69.48;101331.91;1872733;77;21102;-65
2022/05/16 04:00:37;;;;;;;4.85;2.25;;;;;;;14.86;68.81;101333.72;1859095;76;21027;-64
2022/05/16 04:03:06;;;;;;;8.23;3.27;;;;;;;15.09;68.46;101333.52;1791136;80;21485;-65
2022/05/16 04:05:36;;;;;;;11.60;3.20;;;;;;;15.30;67.96;101341.77;1822453;79;21107;-66
2022/05/16 04:08:05;;;;;;;6.90;3.05;;;;;;;15.57;67.61;101341.34;1828667;78;21469;-65
2022/05/16 04:10:34;;;;;;;5.15;2.95;;;;;;;15.86;67.15;101333.70;1822836;77;21098;-66
2022/05/16 04:13:03;;;;;;;17.17;3.17;;;;;;;16.17;66.70;101331.63;1809535;79;21043;-65
2022/05/16 04:15:32;;;;;;;7.40;3.02;;;;;;;16.47;65.92;101325.16;1791009;80;21163;-65
2022/05/16 04:18:00;;;;;;;11.90;3.47;;;;;;;16.75;65.34;101331.61;1809555;79;21369;-64
2022/05/16 04:20:29;;;;;;;6.22;2.77;;;;;;;17.07;65.01;101332.47;1790890;80;21120;-65
2022/05/16 04:22:58;;;;;;;12.10;2.98;;;;;;;17.25;64.14;101328.39;1809539;79;21114;-65
2022/05/16 04:25:27;;;;;;;6.17;2.20;;;;;;;17.47;63.85;101328.00;1792999;79;21587;-64
2022/05/16 04:27:56;;;;;;;6.70;1.90;;;;;;;17.76;63.29;101330.23;1809567;79;21039;-64
2022/05/16 04:30:25;;;;;;;6.15;2.10;;;;;;;18.02;62.78;101327.84;1791038;80;21098;-63
2022/05/16 04:32:53;;;;;;;8.80;2.45;;;;;;;18.24;61.77;101331.38;1809522;79;21058;-64
2022/05/16 04:35:22;;;;;;;8.38;2.52;;;;;;;18.48;61.53;101327.20;1792901;79;21097;-63
2022/05/16 04:37:51;;;;;;;6.87;1.95;;;;;;;18.82;61.43;101326.41;1809665;79;21501;-63
2022/05/16 04:40:20;;;;;;;9.50;2.40;;;;;;;19.13;60.64;101335.09;1790903;80;21027;-63
2022/05/16 04:42:49;;;;;;;4.22;2.10;;;;;;;19.27;58.82;101344.39;1809700;79;21066;-64
2022/05/16 04:45:21;;;;;;;11.83;2.22;;;;;;;19.38;58.36;101341.47;1792937;79;21047;-63
2022/05/16 04:48:06;;;;;;;1.72;1.47;;;;;;;19.59;57.90;101336.52;1809524;79;21133;-63
2022/05/16 04:50:36;;;;;;;7.37;1.75;;;;;;;19.87;57.83;101330.17;1790984;80;21078;-64
2022/05/16 04:53:05;;;;;;;6.33;1.80;;;;;;;20.04;56.20;101328.50;1805111;79;21111;-62
2022/05/16 04:55:34;;;;;;;5.78;1.77;;;;;;;20.08;54.88;101337.66;1808172;78;21117;-63
2022/05/16 04:58:03;;;;;;;4.40;2.00;;;;;;;20.14;53.88;101327.86;1835624;78;21101;-62
2022/05/16 05:00:31;;;;;;;5.78;1.70;;;;;;;20.17;53.43;101327.66;1850190;77;21086;-62
2022/05/16 05:03:00;;;;;;;5.90;2.40;;;;;;;20.29;53.01;101333.95;1846074;77;21077;-63
2022/05/16 05:05:28;;;;;;;7.08;1.90;;;;;;;20.34;52.00;101329.98;1868436;77;21042;-62
2022/05/16 05:07:57;;;;;;;8.53;1.67;;;;;;;20.54;52.67;101324.55;1834239;78;21057;-63
2022/05/16 05:16:04;;;;;;;5.62;2.02;;;;;;;21.53;51.00;101332.11;1834258;78;21049;-65
2022/05/16 05:18:33;;;;;;;6.33;1.82;;;;;;;21.77;50.72;101329.37;1833321;78;21480;-65
2022/05/16 05:21:02;;;;;;;4.37;1.52;;;;;;;21.92;49.79;101325.48;1834303;78;21095;-65
2022/05/16 05:23:33;;;;;;;4.58;1.65;;;;;;;22.09;48.88;101320.64;1834221;78;21073;-65
2022/05/16 05:26:02;;;;;;;6.53;1.75;;;;;;;22.22;48.81;101324.05;1834266;78;21038;-64
2022/05/16 05:28:31;;;;;;;6.03;1.70;;;;;;;22.32;47.47;101317.52;1834371;78;21081;-66
2022/05/16 05:31:01;;;;;;;6.80;1.82;;;;;;;22.23;46.85;101317.73;1834283;77;21097;-66
2022/05/16 05:33:30;;;;;;;4.85;1.72;;;;;;;22.39;47.68;101322.77;1834168;77;21499;-65
2022/05/16 05:35:58;;;;;;;5.08;1.77;;;;;;;22.71;47.06;101332.23;1834816;77;21496;-64
2022/05/16 05:38:27;;;;;;;3.83;2.12;;;;;;;22.85;46.84;101327.56;1834349;78;21037;-64
2022/05/16 05:40:56;;;;;;;4.35;1.50;;;;;;;23.19;46.92;101327.52;1834272;78;21077;-64
2022/05/16 05:43:24;;;;;;;4.33;1.75;;;;;;;23.62;47.05;101325.23;1834261;78;21139;-64
2022/05/16 05:45:53;;;;;;;2.83;1.47;;;;;;;24.08;46.68;101329.38;1834311;77;21143;-66
2022/05/16 05:48:22;;;;;;;2.22;1.30;;;;;;;24.50;45.63;101323.05;1834260;78;21133;-64
2022/05/16 05:50:50;;;;;;;2.60;1.47;;;;;;;24.92;45.22;101322.41;1862681;77;21119;-64
2022/05/16 05:53:19;;;;;;;2.83;1.00;;;;;;;25.02;42.40;101322.41;1868282;76;21102;-64
2022/05/16 05:55:48;;;;;;;2.55;0.90;;;;;;;25.22;43.11;101325.98;1873397;76;21063;-66
2022/05/16 05:58:17;;;;;;;4.17;1.02;;;;;;;25.56;42.61;101318.81;1873402;76;21568;-62
2022/05/16 06:00:46;;;;;;;2.40;1.55;;;;;;;25.50;39.61;101326.14;1830340;76;21094;-64
2022/05/16 06:03:16;;;;;;;1.25;0.90;;;;;;;25.60;40.12;101321.10;1811848;79;21057;-64
2022/05/16 06:05:44;;;;;;;5.12;1.52;;;;;;;25.98;40.21;101325.23;1811879;79;21058;-64
2022/05/16 06:08:13;;;;;;;6.00;1.07;;;;;;;26.41;40.49;101323.78;1812012;79;21074;-64
2022/05/16 06:10:43;;;;;;;1.92;1.17;;;;;;;26.72;40.01;101319.47;1835205;76;21102;-62
2022/05/16 06:13:12;;;;;;;2.95;1.05;;;;;;;26.47;35.56;101319.16;1873266;76;21137;-64
2022/05/16 06:15:40;;;;;;;4.08;1.35;;;;;;;26.28;36.35;101319.23;1873409;76;21158;-62
2022/05/16 06:18:09;;;;;;;8.83;1.20;;;;;;;26.33;36.21;101322.34;1873436;76;21031;-64
2022/05/16 06:20:39;;;;;;;1.87;1.10;;;;;;;26.35;35.72;101323.03;1865025;76;21813;-62
2022/05/16 06:23:08;;;;;;;2.20;1.30;;;;;;;26.52;35.37;101324.09;1811866;79;21465;-62
2022/05/16 06:25:42;;;;;;;4.12;1.60;;;;;;;26.54;35.55;101325.66;1812026;79;21526;-63
2022/05/16 06:28:22;;;;;;;1.80;1.00;;;;;;;26.52;35.06;101326.31;1811880;79;21058;-62
2022/05/16 06:30:52;;;;;;;3.45;1.20;;;;;;;26.70;35.17;101318.77;1811957;79;21019;-62
2022/05/16 06:33:25;;;;;;;2.47;1.07;;;;;;;26.79;35.22;101317.86;1816387;76;21071;-63
2022/05/16 06:35:53;;;;;;;2.45;1.40;;;;;;;26.87;33.88;101315.74;1820102;79;21085;-64
2022/05/16 06:38:25;;;;;;;2.10;1.10;;;;;;;26.51;33.10;101312.45;1819839;79;21062;-64
2022/05/16 06:40:55;;;;;;;3.27;1.10;;;;;;;26.52;32.36;101311.46;1858274;77;21112;-63
2022/05/16 06:43:26;;;;;;;5.40;1.20;;;;;;;26.58;33.18;101307.30;1874022;76;21036;-63
2022/05/16 06:45:55;;;;;;;1.92;1.00;;;;;;;26.80;33.19;101311.47;1881314;76;21550;-63
2022/05/16 06:48:24;;;;;;;4.92;1.47;;;;;;;26.95;32.95;101314.49;1881292;76;21500;-62
2022/05/16 06:50:53;;;;;;;1.72;1.32;;;;;;;26.75;32.04;101315.13;1877269;76;21113;-64
2022/05/16 06:53:26;;;;;;;4.83;1.77;;;;;;;26.45;31.29;101321.16;1879361;76;21529;-61
2022/05/16 06:55:55;;;;;;;;;;;;;;;26.14;31.71;101311.97;1882336;76;21035;-64
2022/05/16 06:58:24;;;;;;;3.67;1.22;;;;;;;26.25;32.16;101314.15;1879503;76;20433;-64
2022/05/16 07:00:53;;;;;;;2.35;1.10;;;;;;;26.42;31.88;101313.34;1877455;76;21611;-65
2022/05/16 07:03:22;;;;;;;2.35;1.10;;;;;;;26.45;30.45;101313.06;1879377;76;21118;-63
2022/05/16 07:05:52;;;;;;;3.83;1.20;;;;;;;26.37;30.49;101311.11;1879656;76;21153;-62
2022/05/16 07:08:22;;;;;;;2.33;1.00;;;;;;;26.31;29.77;101310.84;1879468;76;21139;-63
2022/05/16 07:10:52;;;;;;;2.87;0.90;;;;;;;26.58;30.20;101323.00;1863935;76;21481;-61
2022/05/16 07:13:21;;;;;;;2.95;0.90;;;;;;;26.73;30.05;101317.12;1849639;77;21592;-62
2022/05/16 07:15:50;;;;;;;9.70;1.00;;;;;;;26.89;30.26;101326.77;1849580;77;21054;-64
2022/05/16 07:18:19;;;;;;;1.67;1.25;;;;;;;27.47;30.74;101330.88;1849837;77;21027;-63
2022/05/16 07:20:48;;;;;;;1.92;1.17;;;;;;;27.75;28.73;101319.09;1856591;76;21043;-63
2022/05/16 07:23:17;;;;;;;3.42;0.90;;;;;;;27.60;27.13;101325.06;1879431;76;21132;-64
2022/05/16 07:28:33;;;;;;;2.10;0.85;;;;;;;27.80;27.68;101314.06;1879632;76;21082;-65
2022/05/16 07:31:02;;;;;;;1.98;0.90;;;;;;;27.87;27.36;101320.53;1879595;76;21051;-64
2022/05/16 07:33:31;;;;;;;2.25;0.72;;;;;;;28.28;28.13;101342.45;1879477;76;21481;-64
2022/05/16 07:36:00;;;;;;;1.20;0.90;;;;;;;28.41;28.37;101329.30;1877053;76;21116;-61
2022/05/16 07:38:29;;;;;;;1.15;0.80;;;;;;;28.83;28.15;101325.77;1879398;76;21098;-64
2022/05/16 07:40:59;;;;;;;1.95;0.72;;;;;;;28.95;28.24;101341.70;1879432;76;21052;-63
2022/05/16 07:43:28;;;;;;;2.37;1.17;;;;;;;29.25;28.36;101332.98;1879403;76;21493;-62
2022/05/16 07:45:57;;;;;;;1.62;0.95;;;;;;;29.76;27.95;101340.96;1873928;76;21485;-62
2022/05/16 07:48:25;;;;;;;1.95;0.93;;;;;;;29.99;27.46;101335.67;1849620;77;21070;-61
2022/05/16 07:50:54;;;;;;;2.77;0.90;;;;;;;29.94;26.13;101332.63;1849800;77;21137;-62
2022/05/16 07:53:23;;;;;;;2.12;0.90;;;;;;;29.89;24.88;101333.64;1850398;76;21078;-63
2022/05/16 07:55:54;;;;;;;2.60;1.57;;;;;;;29.35;24.22;101327.39;1861847;77;21078;-62
2022/05/16 07:58:25;;;;;;;4.42;1.40;;;;;;;29.10;24.18;101327.83;1861852;77;21097;-61
2022/05/16 08:00:54;;;;;;;1.90;1.25;;;;;;;29.22;25.07;101337.38;1864853;76;21114;-63
2022/05/16 08:03:25;;;;;;;2.22;1.10;;;;;;;29.76;25.31;101346.91;1893720;76;21092;-62
2022/05/16 08:05:53;;;;;;;2.75;1.30;;;;;;;29.88;24.43;101348.26;1893687;76;21559;-61
2022/05/16 08:11:14;;;;;;;3.25;0.85;;;;;;;30.23;24.70;101346.14;1893714;75;21090;-62
2022/05/16 08:13:41;;;;;;;3.72;1.00;;;;;;;30.36;24.47;101344.23;1891988;76;21045;-63
2022/05/16 08:16:11;;;;;;;3.42;0.90;;;;;;;30.27;23.98;101350.19;1892224;76;21039;-63
2022/05/16 08:18:40;;;;;;;2.27;1.00;;;;;;;30.22;23.41;101347.98;1892082;76;21046;-62
2022/05/16 08:21:10;;;;;;;2.55;0.80;;;;;;;30.10;23.66;101344.45;1892080;76;21039;-62
2022/05/16 08:23:40;;;;;;;4.80;1.07;;;;;;;29.19;24.24;101349.91;1891809;76;21551;-62
2022/05/16 08:26:09;;;;;;;6.60;0.98;;;;;;;28.91;24.55;101347.12;1892072;76;21485;-65
2022/05/16 08:28:39;;;;;;;3.10;0.80;;;;;;;29.31;24.69;101351.80;1891992;76;21046;-64
2022/05/16 08:31:08;;;;;;;3.95;0.95;;;;;;;29.82;24.69;101358.42;1892069;76;21046;-65
2022/05/16 08:33:39;;;;;;;4.12;1.07;;;;;;;29.93;24.32;101347.20;1889791;76;21112;-64
2022/05/16 08:41:50;;;;;;;2.65;1.15;;;;;;;29.79;24.09;101356.07;1892055;76;21560;-64
2022/05/16 08:44:23;;;;;;;4.25;1.10;;;;;;;29.63;23.75;101353.66;1881929;76;21038;-63
2022/05/16 08:47:01;;;;;;;4.70;0.90;;;;;;;29.43;23.93;101358.57;1861717;76;21050;-65
2022/05/16 08:49:47;;;;;;;4.00;0.80;;;;;;;29.27;24.33;101357.20;1861740;76;21140;-63
2022/05/16 08:52:21;;;;;;;2.15;0.70;;;;;;;29.60;24.56;101355.37;1847157;76;21057;-63
2022/05/16 08:55:08;;;;;;;3.65;0.98;;;;;;;30.06;24.55;101362.13;1867352;76;21509;-62
2022/05/16 08:57:48;;;;;;;2.98;0.88;;;;;;;29.85;23.61;101351.30;1879534;76;21486;-62
2022/05/16 09:00:26;;;;;;;2.00;0.78;;;;;;;30.00;24.12;101359.07;1879546;76;21043;-61
2022/05/16 09:02:57;;;;;;;3.33;1.05;;;;;;;30.15;24.22;101350.22;1861837;76;21118;-63
2022/05/16 09:05:29;;;;;;;3.30;0.90;;;;;;;30.14;23.65;101340.39;1849600;77;21039;-61
2022/05/16 09:07:59;;;;;;;4.55;1.72;;;;;;;29.79;23.85;101352.84;1849589;77;21485;-63
2022/05/16 09:10:49;;;;;;;3.62;0.80;;;;;;;29.67;24.47;101351.45;1849557;77;21653;-61
2022/05/16 09:13:33;;;;;;;2.75;1.10;;;;;;;29.74;24.56;101360.64;1852667;76;21079;-62
2022/05/16 09:16:10;;;;;;;2.55;0.80;;;;;;;29.84;24.69;101364.52;1849347;77;21078;-61
2022/05/16 09:18:48;;;;;;;3.77;1.32;;;;;;;29.74;24.58;101358.45;1845551;77;21450;-63
2022/05/16 09:21:19;;;;;;;4.17;0.90;;;;;;;29.94;24.88;101352.98;1849584;77;21538;-61
2022/05/16 09:23:58;;;;;;;10.30;1.57;;;;;;;30.26;24.60;101358.51;1851535;76;21125;-60
2022/05/16 09:26:47;;;;;;;3.25;1.00;;;;;;;30.09;23.61;101350.41;1849636;77;21038;-60
2022/05/16 09:29:33;;;;;;;2.33;0.80;;;;;;;29.74;23.14;101343.52;1849755;76;21221;-64
2022/05/16 09:32:14;;;;;;;7.53;1.20;;;;;;;29.65;23.70;101341.28;1849582;77;21116;-63
2022/05/16 09:34:43;;;;;;;3.67;1.90;;;;;;;29.54;24.07;101348.41;1849564;77;21026;-63
2022/05/16 09:37:12;;;;;;;2.67;0.90;;;;;;;29.62;24.24;101353.34;1849496;77;21054;-65
2022/05/16 09:39:42;;;;;;;3.17;1.12;;;;;;;29.63;24.36;101355.02;1849551;77;21090;-64
2022/05/16 09:42:35;;;;;;;2.98;1.00;;;;;;;29.86;24.62;101351.63;1880543;76;21104;-62
2022/05/16 09:45:15;;;;;;;1.15;1.02;;;;;;;29.76;23.10;101327.91;1881333;76;21085;-62
2022/05/16 09:47:44;;;;;;;1.80;0.88;;;;;;;29.01;23.11;101347.33;1880684;75;21041;-62
2022/05/16 09:50:30;;;;;;;4.80;1.00;;;;;;;28.79;24.06;101352.86;1881225;76;21440;-62
2022/05/16 09:53:09;;;;;;;3.87;1.12;;;;;;;28.68;24.03;101353.13;1881221;76;21022;-63
2022/05/16 09:55:53;;;;;;;2.45;1.00;;;;;;;28.69;23.66;101348.06;1879606;76;21070;-67
2022/05/16 09:58:33;;;;;;;1.90;0.88;;;;;;;28.52;24.15;101343.58;1879303;76;21086;-65
2022/05/16 10:01:04;;;;;;;2.62;1.02;;;;;;;28.49;24.36;101360.98;1879472;76;21046;-66
2022/05/16 10:03:45;;;;;;;3.42;1.10;;;;;;;28.54;24.69;101355.97;1854171;76;21458;-65
2022/05/16 10:06:32;;;;;;;1.42;0.90;;;;;;;28.55;24.78;101349.56;1857995;77;21046;-64
2022/05/16 10:09:06;;;;;;;7.12;1.22;;;;;;;28.53;25.24;101348.00;1857889;77;21108;-64
2022/05/16 10:11:37;;;;;;;2.02;0.95;;;;;;;28.42;25.41;101359.45;1857168;76;21544;-64
2022/05/16 10:14:06;;;;;;;5.30;1.32;;;;;;;28.45;24.98;101344.73;1859770;76;21120;-64
2022/05/16 10:16:38;;;;;;;1.60;1.00;;;;;;;28.26;24.98;101366.14;1857890;76;21094;-64
2022/05/16 10:19:13;;;;;;;1.47;0.98;;;;;;;28.18;25.45;101356.59;1857102;77;21465;-63
2022/05/16 10:21:57;;;;;;;1.50;0.80;;;;;;;28.17;25.50;101354.41;1857863;77;21018;-64
2022/05/16 10:24:31;;;;;;;1.85;0.88;;;;;;;28.09;25.44;101361.98;1880003;76;21082;-64
2022/05/16 10:27:02;;;;;;;1.40;1.05;;;;;;;27.88;25.86;101360.94;1885375;76;21047;-62
2022/05/16 10:29:33;;;;;;;2.45;1.20;;;;;;;27.70;26.01;101363.70;1885062;76;21047;-63
2022/05/16 10:35:07;;;;;;;3.30;1.02;;;;;;;27.58;26.26;101356.84;1883139;76;21034;-62
2022/05/16 10:37:39;;;;;;;4.33;1.10;;;;;;;27.44;26.22;101362.79;1885209;76;21023;-64
2022/05/16 10:40:10;;;;;;;3.00;0.90;;;;;;;27.51;26.48;101366.06;1885290;76;21199;-65
2022/05/16 10:42:59;;;;;;;2.92;0.88;;;;;;;27.67;26.63;101369.42;1879929;75;21565;-63
2022/05/16 10:45:31;;;;;;;3.90;0.88;;;;;;;27.63;26.65;101359.05;1875353;76;21105;-64
2022/05/16 10:48:05;;;;;;;1.95;1.00;;;;;;;27.37;26.63;101353.59;1885369;76;21067;-61
2022/05/16 10:50:48;;;;;;;1.20;0.90;;;;;;;27.05;26.53;101352.25;1855347;76;21581;-63
2022/05/16 10:53:22;;;;;;;1.40;0.80;;;;;;;26.73;26.93;101365.75;1862033;76;21023;-61
2022/05/16 10:55:56;;;;;;;2.22;1.40;;;;;;;26.52;27.23;101368.17;1874836;76;21055;-62
2022/05/16 10:58:43;;;;;;;2.10;1.30;;;;;;;26.26;27.57;101363.06;1880480;76;21105;-60
2022/05/16 11:01:15;;;;;;;2.17;1.32;;;;;;;25.96;28.25;101356.40;1878886;76;21050;-60
2022/05/16 11:04:20;;;;;;;2.98;1.17;;;;;;;25.73;28.61;101361.25;1863226;76;20995;-61
2022/05/16 11:06:52;;;;;;;6.65;1.52;;;;;;;25.80;28.70;101353.42;1861201;77;21132;-63
2022/05/16 11:09:35;;;;;;;3.22;1.25;;;;;;;25.39;28.30;101325.28;1863294;76;21094;-61
2022/05/16 11:12:16;;;;;;;6.35;1.25;;;;;;;25.09;28.85;101339.72;1861133;77;21359;-60
2022/05/16 11:14:54;;;;;;;3.80;1.37;;;;;;;25.01;29.12;101347.16;1863363;76;21152;-61
2022/05/16 11:17:37;;;;;;;3.83;1.27;;;;;;;24.85;29.51;101360.31;1860987;76;21509;-61
2022/05/16 11:20:24;;;;;;;2.00;1.02;;;;;;;24.62;29.87;101356.97;1859567;76;21497;-63
2022/05/16 11:22:59;;;;;;;1.67;1.07;;;;;;;24.39;30.38;101350.91;1862933;76;21531;-63
2022/05/16 11:25:47;;;;;;;4.47;0.90;;;;;;;24.54;30.55;101348.73;1860225;77;21073;-63
2022/05/16 11:29:16;;;;;;;3.75;1.20;;;;;;;24.32;30.53;101345.20;1861269;77;21108;-63
2022/05/16 11:31:14;;;;;;;4.10;1.40;;;;;;;24.38;30.71;101344.69;1865702;76;21011;-63
2022/05/16 11:33:52;;;;;;;4.12;1.10;;;;;;;24.64;30.74;101355.86;1834957;77;21015;-61
2022/05/16 11:36:35;;;;;;;4.75;1.55;;;;;;;24.70;30.83;101346.38;1822918;79;21192;-61
2022/05/16 11:39:16;;;;;;;2.58;1.42;;;;;;;24.50;31.20;101363.43;1824360;79;21119;-63
2022/05/16 11:42:07;;;;;;;3.35;1.27;;;;;;;24.20;31.85;101367.33;1825030;78;21465;-63
2022/05/16 11:44:50;;;;;;;4.72;1.80;;;;;;;24.02;32.25;101362.20;1830732;78;21168;-63
2022/05/16 11:47:43;;;;;;;1.92;0.90;;;;;;;24.09;32.56;101363.38;1830527;78;21050;-61
2022/05/16 11:50:20;;;;;;;4.07;1.20;;;;;;;24.41;32.57;101354.32;1831096;77;21054;-63
2022/05/16 11:53:10;;;;;;;5.70;2.08;;;;;;;24.56;32.58;101347.59;1829539;78;21580;-61
2022/05/16 12:01:36;;;;;;;1.52;1.20;;;;;;;24.37;33.39;101371.73;1835608;78;21126;-61
2022/05/16 12:04:17;;;;;;;4.80;1.27;;;;;;;24.57;33.28;101372.20;1835832;78;21164;-63
2022/05/16 12:06:53;;;;;;;4.90;1.20;;;;;;;24.61;33.00;101365.55;1835671;78;21122;-63
2022/05/16 12:09:24;;;;;;;5.28;1.30;;;;;;;24.48;33.08;101374.33;1846906;77;21050;-62
2022/05/16 12:12:02;;;;;;;2.25;1.10;;;;;;;24.42;33.36;101360.92;1865140;77;21145;-61
2022/05/16 12:14:34;;;;;;;1.75;1.20;;;;;;;24.54;33.43;101364.39;1865229;77;21140;-63
2022/05/16 12:17:17;;;;;;;3.05;1.10;;;;;;;24.34;33.22;101368.80;1865318;77;21116;-63
2022/05/16 12:19:48;;;;;;;;;;;;;;;24.06;33.36;101368.51;1867216;77;21570;-61
2022/05/16 12:22:32;;;;;;;13.95;1.62;;;;;;;24.06;33.07;101359.09;1865257;77;20157;-61
2022/05/16 12:25:13;;;;;;;2.50;1.00;;;;;;;24.04;33.06;101366.95;1860951;77;21548;-63
2022/05/16 12:27:47;;;;;;;3.47;1.32;;;;;;;24.12;33.03;101367.62;1865171;77;21213;-59
2022/05/16 12:30:24;;;;;;;4.30;1.07;;;;;;;24.16;32.88;101366.37;1863724;77;21108;-60